createdAt,value
2018-09-11T00:01:39.627Z,100501.54
2018-09-11T00:04:09.404Z,100505.34
2018-09-11T00:06:39.105Z,100507.72
2018-09-11T00:09:11.430Z,100510.55
2018-09-11T00:11:41.493Z,100517.45
2018-09-11T00:14:11.214Z,100519.27
2018-09-11T00:16:40.913Z,100516.85
2018-09-11T00:19:10.697Z,100517.11
2018-09-11T00:21:40.406Z,100519.76
2018-09-11T00:24:10.169Z,100521.91
2018-09-11T00:26:39.868Z,100517.19
2018-09-11T00:29:09.605Z,100512.23
2018-09-11T00:31:39.296Z,100517.52
2018-09-11T00:34:09.813Z,100516.53
2018-09-11T00:36:39.624Z,100512.47
2018-09-11T00:39:09.747Z,100503.79
2018-09-11T00:41:39.440Z,100500.55
2018-09-11T00:44:09.176Z,100506.95
2018-09-11T00:46:39.208Z,100498.77
2018-09-11T00:49:08.940Z,100492.44
2018-09-11T00:51:38.645Z,100492.84
2018-09-11T00:54:08.372Z,100488.13
2018-09-11T00:56:38.033Z,100495.16
2018-09-11T00:59:07.769Z,100488.39
2018-09-11T01:01:37.468Z,100488.61
2018-09-11T01:04:07.183Z,100486.91
2018-09-11T01:06:36.913Z,100483.47
2018-09-11T01:09:09.132Z,100480.27
2018-09-11T01:11:38.828Z,100472.70
2018-09-11T01:14:08.556Z,100475.38
2018-09-11T01:16:38.316Z,100466.47
2018-09-11T01:19:08.058Z,100473.56
2018-09-11T01:21:37.784Z,100474.72
2018-09-11T01:24:07.498Z,100474.22
2018-09-11T01:26:37.209Z,100469.45
2018-09-11T01:29:06.947Z,100472.35
2018-09-11T01:31:36.662Z,100466.47
2018-09-11T01:34:07.223Z,100463.65
2018-09-11T01:36:36.972Z,100466.23
2018-09-11T01:39:09.608Z,100459.83
2018-09-11T01:41:39.348Z,100454.55
2018-09-11T01:44:09.467Z,100455.47
2018-09-11T01:46:39.200Z,100457.25
2018-09-11T01:49:08.904Z,100452.62
2018-09-11T01:51:38.662Z,100443.02
2018-09-11T01:54:08.352Z,100439.54
2018-09-11T01:56:38.064Z,100443.77
2018-09-11T01:59:07.756Z,100441.84
2018-09-11T02:01:37.451Z,100445.58
2018-09-11T02:04:07.215Z,100447.95
2018-09-11T02:06:36.926Z,100449.89
2018-09-11T02:09:09.733Z,100450.29
2018-09-11T02:11:39.449Z,100459.03
2018-09-11T02:14:09.204Z,100459.23
2018-09-11T02:16:38.867Z,100453.70
2018-09-11T02:19:08.560Z,100453.37
2018-09-11T02:21:38.329Z,100455.25
2018-09-11T02:24:08.056Z,100451.39
2018-09-11T02:26:37.768Z,100451.14
2018-09-11T02:29:07.505Z,100457.45
2018-09-11T02:31:37.196Z,100466.35
2018-09-11T02:34:07.288Z,100471.19
2018-09-11T02:36:36.974Z,100470.36
2018-09-11T02:39:09.389Z,100473.20
2018-09-11T02:41:39.193Z,100470.48
2018-09-11T02:44:09.848Z,100473.48
2018-09-11T02:46:39.704Z,100469.43
2018-09-11T02:49:09.424Z,100476.47
2018-09-11T02:51:39.182Z,100480.40
2018-09-11T02:54:08.847Z,100481.68
2018-09-11T02:56:38.589Z,100485.24
2018-09-11T02:59:08.302Z,100484.02
2018-09-11T03:01:38.006Z,100481.19
2018-09-11T03:04:07.804Z,100489.73
2018-09-11T03:06:37.513Z,100486.77
2018-09-11T03:09:07.585Z,100489.87
2018-09-11T03:11:37.480Z,100485.31
2018-09-11T03:14:07.283Z,100486.02
2018-09-11T03:16:36.989Z,100492.45
2018-09-11T03:19:06.812Z,100488.98
2018-09-11T03:21:36.543Z,100490.96
2018-09-11T03:24:06.280Z,100490.89
2018-09-11T03:26:35.961Z,100502.72
2018-09-11T03:29:05.713Z,100499.38
2018-09-11T03:31:35.389Z,100495.00
2018-09-11T03:34:05.108Z,100496.94
2018-09-11T03:36:34.801Z,100491.27
2018-09-11T03:39:05.185Z,100483.91
2018-09-11T03:41:34.876Z,100491.30
2018-09-11T03:44:04.720Z,100493.18
2018-09-11T03:46:34.467Z,100501.76
2018-09-11T03:49:04.263Z,100502.91
2018-09-11T03:51:33.944Z,100497.77
2018-09-11T03:54:03.664Z,100494.59
2018-09-11T03:56:33.349Z,100494.13
2018-09-11T03:59:03.079Z,100498.72
2018-09-11T04:01:32.751Z,100495.88
2018-09-11T04:04:02.459Z,100500.13
2018-09-11T04:06:32.185Z,100499.00
2018-09-11T04:09:01.923Z,100501.70
2018-09-11T04:11:31.616Z,100499.78
2018-09-11T04:14:01.354Z,100496.06
2018-09-11T04:16:32.044Z,100496.09
2018-09-11T04:19:01.779Z,100494.17
2018-09-11T04:21:31.712Z,100491.41
2018-09-11T04:24:01.393Z,100483.79
2018-09-11T04:26:31.160Z,100482.00
2018-09-11T04:29:00.928Z,100481.75
2018-09-11T04:31:30.740Z,100486.62
2018-09-11T04:34:00.489Z,100487.91
2018-09-11T04:36:30.292Z,100483.66
2018-09-11T04:38:59.912Z,100487.36
2018-09-11T04:41:29.604Z,100484.44
2018-09-11T04:43:59.328Z,100480.58
2018-09-11T04:46:29.013Z,100482.00
2018-09-11T04:48:58.746Z,100478.91
2018-09-11T04:51:28.425Z,100481.28
2018-09-11T04:53:58.139Z,100478.25
2018-09-11T04:56:27.838Z,100475.60
2018-09-11T04:58:57.544Z,100478.38
2018-09-11T05:01:27.229Z,100467.63
2018-09-11T05:03:57.012Z,100461.86
2018-09-11T05:06:26.720Z,100465.13
2018-09-11T05:08:56.444Z,100461.53
2018-09-11T05:11:26.206Z,100466.61
2018-09-11T05:13:55.968Z,100463.77
2018-09-11T05:16:25.644Z,100449.50
2018-09-11T05:18:55.356Z,100450.79
2018-09-11T05:21:25.103Z,100443.54
2018-09-11T05:23:54.812Z,100443.63
2018-09-11T05:26:24.488Z,100441.88
2018-09-11T05:28:54.159Z,100440.53
2018-09-11T05:31:23.847Z,100449.57
2018-09-11T05:33:53.560Z,100448.41
2018-09-11T05:36:23.224Z,100442.75
2018-09-11T05:38:52.965Z,100439.42
2018-09-11T05:41:22.615Z,100438.62
2018-09-11T05:43:52.314Z,100447.20
2018-09-11T05:46:21.989Z,100437.53
2018-09-11T05:48:51.725Z,100445.25
2018-09-11T05:51:21.503Z,100436.80
2018-09-11T05:53:51.212Z,100438.50
2018-09-11T05:56:21.435Z,100430.77
2018-09-11T05:58:51.151Z,100429.29
2018-09-11T06:01:20.896Z,100429.36
2018-09-11T06:03:50.598Z,100429.16
2018-09-11T06:06:20.286Z,100435.23
2018-09-11T06:08:50.112Z,100435.23
2018-09-11T06:11:19.817Z,100430.45
2018-09-11T06:13:49.496Z,100439.84
2018-09-11T06:16:19.263Z,100438.36
2018-09-11T06:18:49.013Z,100432.33
2018-09-11T06:21:19.188Z,100434.64
2018-09-11T06:23:48.865Z,100430.37
2018-09-11T06:26:18.536Z,100426.06
2018-09-11T06:28:48.240Z,100427.94
2018-09-11T06:31:17.910Z,100424.34
2018-09-11T06:33:47.592Z,100426.20
2018-09-11T06:36:17.292Z,100424.78
2018-09-11T06:38:47.027Z,100426.67
2018-09-11T06:41:16.755Z,100425.05
2018-09-11T06:43:46.456Z,100423.37
2018-09-11T06:46:16.128Z,100423.13
2018-09-11T06:48:46.057Z,100424.97
2018-09-11T06:51:15.731Z,100425.33
2018-09-11T06:53:45.456Z,100428.70
2018-09-11T06:56:15.120Z,100423.30
2018-09-11T06:58:44.916Z,100411.70
2018-09-11T07:01:14.623Z,100411.81
2018-09-11T07:03:44.356Z,100416.21
2018-09-11T07:06:14.093Z,100413.98
2018-09-11T07:08:43.772Z,100413.20
2018-09-11T07:11:13.528Z,100430.16
2018-09-11T07:13:43.209Z,100422.98
2018-09-11T07:16:12.896Z,100426.78
2018-09-11T07:18:42.689Z,100431.49
2018-09-11T07:21:12.372Z,100425.75
2018-09-11T07:23:42.092Z,100436.35
2018-09-11T07:26:11.811Z,100435.88
2018-09-11T07:28:41.432Z,100430.88
2018-09-11T07:31:11.160Z,100439.94
2018-09-11T07:33:40.835Z,100435.97
2018-09-11T07:36:10.593Z,100442.92
2018-09-11T07:38:40.321Z,100443.57
2018-09-11T07:41:10.697Z,100440.95
2018-09-11T07:43:40.477Z,100435.38
2018-09-11T07:46:10.154Z,100440.95
2018-09-11T07:48:39.834Z,100440.45
2018-09-11T07:51:09.571Z,100443.19
2018-09-11T07:53:39.250Z,100440.20
2018-09-11T07:56:08.976Z,100435.75
2018-09-11T07:58:38.721Z,100438.27
2018-09-11T08:01:08.412Z,100445.30
2018-09-11T08:03:38.236Z,100440.74
2018-09-11T08:06:07.933Z,100437.95
2018-09-11T08:08:37.677Z,100437.86
2018-09-11T08:11:07.412Z,100434.58
2018-09-11T08:13:37.091Z,100424.98
2018-09-11T08:16:06.793Z,100427.37
2018-09-11T08:18:36.493Z,100428.83
2018-09-11T08:21:06.259Z,100422.36
2018-09-11T08:23:36.178Z,100413.28
2018-09-11T08:26:06.256Z,100423.81
2018-09-11T08:28:35.972Z,100423.78
2018-09-11T08:31:05.970Z,100438.44
2018-09-11T08:33:35.649Z,100436.01
2018-09-11T08:36:05.352Z,100428.80
2018-09-11T08:38:35.038Z,100427.20
2018-09-11T08:41:04.779Z,100434.63
2018-09-11T08:43:34.500Z,100436.06
2018-09-11T08:46:04.185Z,100437.59
2018-09-11T08:48:33.886Z,100432.50
2018-09-11T08:51:03.618Z,100443.61
2018-09-11T08:53:33.324Z,100437.72
2018-09-11T08:56:03.016Z,100439.62
2018-09-11T08:58:32.761Z,100435.64
2018-09-11T09:01:02.453Z,100432.88
2018-09-11T09:03:32.274Z,100426.77
2018-09-11T09:06:01.993Z,100436.22
2018-09-11T09:08:31.715Z,100436.05
2018-09-11T09:11:01.457Z,100428.87
2018-09-11T09:13:31.158Z,100427.13
2018-09-11T09:16:00.828Z,100424.31
2018-09-11T09:18:30.564Z,100428.41
2018-09-11T09:21:00.288Z,100424.95
2018-09-11T09:23:30.557Z,100427.75
2018-09-11T09:26:00.248Z,100421.91
2018-09-11T09:28:29.947Z,100421.34
2018-09-11T09:30:59.711Z,100426.14
2018-09-11T09:33:29.400Z,100420.24
2018-09-11T09:35:59.137Z,100418.09
2018-09-11T09:38:28.821Z,100420.52
2018-09-11T09:40:58.580Z,100417.48
2018-09-11T09:43:28.318Z,100405.84
2018-09-11T09:45:58.025Z,100401.99
2018-09-11T09:48:27.733Z,100415.45
2018-09-11T09:50:57.487Z,100409.48
2018-09-11T09:53:27.204Z,100416.77
2018-09-11T09:55:56.884Z,100413.40
2018-09-11T09:58:26.864Z,100419.11
2018-09-11T10:01:01.672Z,100428.28
2018-09-11T10:03:31.501Z,100420.47
2018-09-11T10:06:01.198Z,100420.61
2018-09-11T10:08:30.925Z,100417.73
2018-09-11T10:11:00.860Z,100424.78
2018-09-11T10:13:30.568Z,100427.50
2018-09-11T10:16:01.106Z,100421.70
2018-09-11T10:18:30.821Z,100417.60
2018-09-11T10:21:00.493Z,100420.83
2018-09-11T10:23:30.253Z,100406.87
2018-09-11T10:25:59.945Z,100405.68
2018-09-11T10:28:29.632Z,100411.31
2018-09-11T10:30:59.317Z,100415.94
2018-09-11T10:33:28.995Z,100415.92
2018-09-11T10:35:58.691Z,100412.50
2018-09-11T10:38:28.372Z,100424.95
2018-09-11T10:40:58.079Z,100409.36
2018-09-11T10:43:27.761Z,100404.36
2018-09-11T10:45:57.433Z,100396.52
2018-09-11T10:48:27.137Z,100404.97
2018-09-11T10:50:56.885Z,100396.52
2018-09-11T10:53:26.560Z,100400.61
2018-09-11T10:55:56.292Z,100399.97
2018-09-11T10:58:25.999Z,100397.23
2018-09-11T11:00:55.725Z,100385.88
2018-09-11T11:03:25.423Z,100396.11
2018-09-11T11:05:55.127Z,100394.53
2018-09-11T11:08:24.893Z,100382.80
2018-09-11T11:10:54.646Z,100367.70
2018-09-11T11:13:24.374Z,100361.57
2018-09-11T11:15:54.041Z,100355.75
2018-09-11T11:18:23.798Z,100366.23
2018-09-11T11:20:53.449Z,100366.16
2018-09-11T11:23:23.205Z,100355.41
2018-09-11T11:25:52.848Z,100353.42
2018-09-11T11:28:22.545Z,100355.80
2018-09-11T11:30:52.481Z,100356.94
2018-09-11T11:33:22.196Z,100355.57
2018-09-11T11:35:51.853Z,100358.53
2018-09-11T11:38:21.522Z,100357.71
2018-09-11T11:40:51.222Z,100352.55
2018-09-11T11:43:20.913Z,100362.84
2018-09-11T11:45:51.281Z,100361.34
2018-09-11T11:48:21.057Z,100367.48
2018-09-11T11:50:50.698Z,100370.45
2018-09-11T11:53:20.598Z,100368.09
2018-09-11T11:55:50.303Z,100368.20
2018-09-11T11:58:20.062Z,100365.52
2018-09-11T12:00:49.815Z,100358.75
2018-09-11T12:03:19.511Z,100358.73
2018-09-11T12:05:49.240Z,100360.06
2018-09-11T12:08:18.956Z,100352.52
2018-09-11T12:10:48.772Z,100350.98
2018-09-11T12:13:18.458Z,100347.28
2018-09-11T12:15:48.219Z,100345.67
2018-09-11T12:18:17.995Z,100339.71
2018-09-11T12:20:47.728Z,100338.72
2018-09-11T12:23:17.464Z,100341.30
2018-09-11T12:25:47.173Z,100331.58
2018-09-11T12:28:16.889Z,100339.06
2018-09-11T12:30:46.612Z,100333.97
2018-09-11T12:33:16.319Z,100336.73
2018-09-11T12:35:46.104Z,100326.89
2018-09-11T12:38:15.803Z,100330.06
2018-09-11T12:40:45.487Z,100329.51
2018-09-11T12:43:15.244Z,100333.41
2018-09-11T12:45:44.981Z,100333.30
2018-09-11T12:48:15.016Z,100335.54
2018-09-11T12:50:44.554Z,100333.78
2018-09-11T12:53:14.273Z,100331.77
2018-09-11T12:55:43.961Z,100342.16
2018-09-11T12:58:13.699Z,100337.51
2018-09-11T13:00:43.436Z,100333.95
2018-09-11T13:03:13.180Z,100337.61
2018-09-11T13:05:42.921Z,100338.80
2018-09-11T13:08:12.608Z,100344.00
2018-09-11T13:10:42.353Z,100342.70
2018-09-11T13:13:12.061Z,100343.19
2018-09-11T13:15:41.780Z,100337.72
2018-09-11T13:18:11.477Z,100334.30
2018-09-11T13:20:41.213Z,100317.75
2018-09-11T13:23:10.893Z,100338.36
2018-09-11T13:25:40.809Z,100336.13
2018-09-11T13:28:10.538Z,100350.46
2018-09-11T13:30:40.263Z,100333.38
2018-09-11T13:33:09.989Z,100345.27
2018-09-11T13:35:39.685Z,100353.69
2018-09-11T13:38:09.422Z,100349.09
2018-09-11T13:40:39.116Z,100351.85
2018-09-11T13:43:08.856Z,100353.77
2018-09-11T13:45:38.564Z,100349.42
2018-09-11T13:48:08.369Z,100347.44
2018-09-11T13:50:38.066Z,100336.20
2018-09-11T13:53:07.776Z,100340.92
2018-09-11T13:55:37.494Z,100333.82
2018-09-11T13:58:07.215Z,100335.16
2018-09-11T14:00:36.946Z,100329.06
2018-09-11T14:03:06.844Z,100321.26
2018-09-11T14:05:36.564Z,100307.86
2018-09-11T14:08:06.601Z,100313.01
2018-09-11T14:10:36.377Z,100308.34
2018-09-11T14:13:06.056Z,100307.03
2018-09-11T14:15:35.748Z,100312.59
2018-09-11T14:18:05.490Z,100308.88
2018-09-11T14:20:35.185Z,100308.70
2018-09-11T14:23:04.916Z,100308.11
2018-09-11T14:25:34.610Z,100314.09
2018-09-11T14:28:04.482Z,100299.68
2018-09-11T14:30:34.228Z,100300.97
2018-09-11T14:33:03.959Z,100301.05
2018-09-11T14:35:33.732Z,100305.91
2018-09-11T14:38:03.468Z,100307.63
2018-09-11T14:40:33.214Z,100289.38
2018-09-11T14:43:02.938Z,100292.48
2018-09-11T14:45:32.687Z,100288.39
2018-09-11T14:48:02.426Z,100281.84
2018-09-11T14:50:32.225Z,100274.16
2018-09-11T14:53:01.975Z,100271.59
2018-09-11T14:55:31.712Z,100274.02
2018-09-11T14:58:01.383Z,100278.95
2018-09-11T15:00:31.076Z,100281.16
2018-09-11T15:03:00.812Z,100290.51
2018-09-11T15:05:30.480Z,100284.67
2018-09-11T15:08:00.312Z,100283.06
2018-09-11T15:10:30.019Z,100287.71
2018-09-11T15:12:59.676Z,100292.03
2018-09-11T15:15:29.400Z,100282.19
2018-09-11T15:17:59.076Z,100284.13
2018-09-11T15:20:28.793Z,100281.61
2018-09-11T15:22:58.492Z,100276.65
2018-09-11T15:25:28.205Z,100272.39
2018-09-11T15:27:57.937Z,100278.28
2018-09-11T15:30:27.805Z,100269.97
2018-09-11T15:32:57.682Z,100268.84
2018-09-11T15:35:27.434Z,100259.70
2018-09-11T15:37:57.161Z,100269.48
2018-09-11T15:40:26.842Z,100270.29
2018-09-11T15:42:56.593Z,100264.42
2018-09-11T15:45:26.277Z,100270.72
2018-09-11T15:47:55.975Z,100272.36
2018-09-11T15:50:25.817Z,100274.61
2018-09-11T15:52:55.541Z,100274.02
2018-09-11T15:55:25.288Z,100275.69
2018-09-11T15:57:55.004Z,100281.53
2018-09-11T16:00:24.723Z,100271.37
2018-09-11T16:02:54.408Z,100276.20
2018-09-11T16:05:24.136Z,100277.58
2018-09-11T16:07:53.841Z,100280.84
2018-09-11T16:10:23.544Z,100280.15
2018-09-11T16:12:53.272Z,100275.70
2018-09-11T16:15:23.030Z,100276.45
2018-09-11T16:17:52.765Z,100282.59
2018-09-11T16:20:22.453Z,100278.33
2018-09-11T16:22:52.205Z,100286.73
2018-09-11T16:25:21.848Z,100286.14
2018-09-11T16:27:51.513Z,100281.25
2018-09-11T16:30:21.210Z,100275.18
2018-09-11T16:32:50.876Z,100269.96
2018-09-11T16:35:20.564Z,100277.14
2018-09-11T16:37:50.248Z,100276.81
2018-09-11T16:40:19.913Z,100279.25
2018-09-11T16:42:49.613Z,100276.77
2018-09-11T16:45:19.281Z,100272.14
2018-09-11T16:47:48.976Z,100264.73
2018-09-11T16:50:18.624Z,100267.48
2018-09-11T16:52:48.344Z,100271.21
2018-09-11T16:55:17.990Z,100270.05
2018-09-11T16:57:47.745Z,100262.88
2018-09-11T17:00:17.482Z,100258.69
2018-09-11T17:02:47.180Z,100267.63
2018-09-11T17:05:16.851Z,100263.78
2018-09-11T17:07:46.528Z,100263.19
2018-09-11T17:10:16.244Z,100264.46
2018-09-11T17:12:46.192Z,100264.42
2018-09-11T17:15:15.865Z,100260.56
2018-09-11T17:17:45.589Z,100264.15
2018-09-11T17:20:15.355Z,100273.25
2018-09-11T17:22:45.005Z,100266.02
2018-09-11T17:25:14.680Z,100265.50
2018-09-11T17:27:44.393Z,100262.12
2018-09-11T17:30:14.121Z,100255.98
2018-09-11T17:32:43.785Z,100254.17
2018-09-11T17:35:13.468Z,100260.00
2018-09-11T17:37:43.161Z,100264.25
2018-09-11T17:40:12.817Z,100263.05
2018-09-11T17:42:42.518Z,100275.81
2018-09-11T17:45:12.309Z,100275.50
2018-09-11T17:47:42.193Z,100271.50
2018-09-11T17:50:11.900Z,100271.91
2018-09-11T17:52:41.636Z,100285.62
2018-09-11T17:55:11.514Z,100281.46
2018-09-11T17:57:41.201Z,100288.84
2018-09-11T18:00:10.993Z,100287.81
2018-09-11T18:02:40.677Z,100279.42
2018-09-11T18:05:10.445Z,100283.27
2018-09-11T18:07:40.124Z,100282.20
2018-09-11T18:10:09.803Z,100286.36
2018-09-11T18:12:39.524Z,100281.52
2018-09-11T18:15:09.225Z,100284.99
2018-09-11T18:17:38.913Z,100278.45
2018-09-11T18:20:08.970Z,100281.37
2018-09-11T18:22:38.729Z,100290.08
2018-09-11T18:25:25.972Z,100288.16
2018-09-11T18:27:55.654Z,100291.74
2018-09-11T18:30:25.360Z,100296.61
2018-09-11T18:32:55.055Z,100305.60
2018-09-11T18:35:24.771Z,100312.02
2018-09-11T18:37:54.449Z,100322.55
2018-09-11T18:40:24.163Z,100323.09
2018-09-11T18:42:53.869Z,100326.38
2018-09-11T18:45:23.680Z,100328.20
2018-09-11T18:47:53.380Z,100334.34
2018-09-11T18:50:23.102Z,100340.05
2018-09-11T18:52:52.852Z,100334.22
2018-09-11T18:55:22.545Z,100336.89
2018-09-11T18:57:52.326Z,100341.05
2018-09-11T19:00:27.092Z,100337.90
2018-09-11T19:03:03.376Z,100342.00
2018-09-11T19:05:33.073Z,100343.30
2018-09-11T19:08:02.857Z,100347.09
2018-09-11T19:10:32.569Z,100342.91
2018-09-11T19:13:02.244Z,100346.66
2018-09-11T19:15:32.069Z,100345.87
2018-09-11T19:18:01.778Z,100348.34
2018-09-11T19:20:31.495Z,100351.22
2018-09-11T19:23:01.308Z,100359.59
2018-09-11T19:25:31.027Z,100364.41
2018-09-11T19:28:00.728Z,100369.50
2018-09-11T19:30:30.420Z,100370.27
2018-09-11T19:33:00.132Z,100373.48
2018-09-11T19:35:29.829Z,100375.91
2018-09-11T19:37:59.539Z,100371.74
2018-09-11T19:40:29.248Z,100372.30
2018-09-11T19:42:58.938Z,100370.69
2018-09-11T19:45:28.615Z,100365.70
2018-09-11T19:47:58.354Z,100366.16
2018-09-11T19:50:28.111Z,100365.81
2018-09-11T19:52:57.751Z,100369.98
2018-09-11T19:55:27.485Z,100371.21
2018-09-11T19:57:57.244Z,100357.56
2018-09-11T20:00:26.930Z,100366.44
2018-09-11T20:02:56.624Z,100368.11
2018-09-11T20:05:26.301Z,100376.27
2018-09-11T20:07:56.333Z,100369.62
2018-09-11T20:10:26.003Z,100365.83
2018-09-11T20:12:55.758Z,100374.19
2018-09-11T20:15:25.428Z,100370.47
2018-09-11T20:17:55.184Z,100370.80
2018-09-11T20:20:24.880Z,100368.00
2018-09-11T20:22:54.585Z,100366.80
2018-09-11T20:25:24.364Z,100369.91
2018-09-11T20:27:53.984Z,100360.14
2018-09-11T20:30:23.688Z,100367.56
2018-09-11T20:32:53.366Z,100365.77
2018-09-11T20:35:23.014Z,100363.05
2018-09-11T20:37:52.728Z,100364.56
2018-09-11T20:40:22.420Z,100364.42
2018-09-11T20:42:52.113Z,100361.23
2018-09-11T20:45:21.783Z,100361.39
2018-09-11T20:47:51.444Z,100359.19
2018-09-11T20:50:21.140Z,100353.23
2018-09-11T20:52:50.906Z,100356.70
2018-09-11T20:55:20.623Z,100354.60
2018-09-11T20:57:50.329Z,100347.09
2018-09-11T21:00:20.055Z,100348.84
2018-09-11T21:02:49.723Z,100347.95
2018-09-11T21:05:19.390Z,100351.41
2018-09-11T21:07:49.065Z,100348.50
2018-09-11T21:10:18.772Z,100346.47
2018-09-11T21:12:48.433Z,100345.45
2018-09-11T21:15:18.155Z,100347.74
2018-09-11T21:17:47.812Z,100348.17
2018-09-11T21:20:17.506Z,100347.42
2018-09-11T21:22:47.184Z,100352.93
2018-09-11T21:25:16.845Z,100348.77
2018-09-11T21:27:46.548Z,100352.20
2018-09-11T21:30:16.301Z,100344.41
2018-09-11T21:32:45.972Z,100344.49
2018-09-11T21:35:15.687Z,100345.77
2018-09-11T21:37:45.339Z,100350.31
2018-09-11T21:40:15.101Z,100350.22
2018-09-11T21:42:44.747Z,100349.94
2018-09-11T21:45:14.440Z,100347.78
2018-09-11T21:47:44.151Z,100353.77
2018-09-11T21:50:13.812Z,100343.11
2018-09-11T21:52:43.467Z,100353.69
2018-09-11T21:55:13.164Z,100350.42
2018-09-11T21:57:42.832Z,100351.59
2018-09-11T22:00:13.494Z,100342.88
2018-09-11T22:02:43.116Z,100343.76
2018-09-11T22:05:12.832Z,100340.12
2018-09-11T22:07:42.489Z,100342.53
2018-09-11T22:10:12.772Z,100348.30
2018-09-11T22:12:42.475Z,100345.27
2018-09-11T22:15:12.330Z,100341.58
2018-09-11T22:17:42.004Z,100341.58
2018-09-11T22:20:11.719Z,100341.03
2018-09-11T22:22:41.428Z,100337.27
2018-09-11T22:25:11.112Z,100341.27
2018-09-11T22:27:40.790Z,100335.25
2018-09-11T22:30:10.491Z,100331.70
2018-09-11T22:32:40.141Z,100329.06
2018-09-11T22:35:09.825Z,100336.91
2018-09-11T22:37:39.526Z,100339.02
2018-09-11T22:40:09.196Z,100335.82
2018-09-11T22:42:38.881Z,100334.14
2018-09-11T22:45:08.861Z,100333.23
2018-09-11T22:47:38.533Z,100332.64
2018-09-11T22:50:08.297Z,100335.59
2018-09-11T22:52:37.955Z,100333.77
2018-09-11T22:55:07.713Z,100329.20
2018-09-11T22:57:37.384Z,100329.80
2018-09-11T23:00:07.139Z,100337.53
2018-09-11T23:02:36.836Z,100331.52
2018-09-11T23:05:06.582Z,100331.87
2018-09-11T23:07:36.260Z,100332.97
2018-09-11T23:10:06.280Z,100331.97
2018-09-11T23:12:35.972Z,100322.27
2018-09-11T23:15:05.715Z,100328.04
2018-09-11T23:17:35.657Z,100325.27
2018-09-11T23:20:05.389Z,100331.75
2018-09-11T23:22:35.077Z,100322.36
2018-09-11T23:25:04.793Z,100318.23
2018-09-11T23:27:34.506Z,100324.59
2018-09-11T23:30:04.305Z,100327.58
2018-09-11T23:32:34.024Z,100325.08
2018-09-11T23:35:03.693Z,100327.63
2018-09-11T23:37:33.346Z,100327.16
2018-09-11T23:40:03.021Z,100331.28
2018-09-11T23:42:33.056Z,100325.97
2018-09-11T23:45:02.745Z,100332.73
2018-09-11T23:47:32.458Z,100333.18
2018-09-11T23:50:02.124Z,100334.16
2018-09-11T23:52:31.790Z,100338.71
2018-09-11T23:55:01.509Z,100343.58
2018-09-11T23:57:31.194Z,100335.08
